sensor_id;sensor_type;location;lat;lon;timestamp;temperature;humidity
67163;DHT22;54092;53.088;8.850;2023-01-10T00:48:06;5.30;99.90
67163;DHT22;54092;53.088;8.850;2023-01-10T01:12:44;6.30;99.90
67163;DHT22;54092;53.088;8.850;2023-01-10T01:15:09;6.20;99.90
67163;DHT22;54092;53.088;8.850;2023-01-10T01:17:36;6.20;99.90
67163;DHT22;54092;53.088;8.850;2023-01-10T01:20:02;6.20;99.90
67163;DHT22;54092;53.088;8.850;2023-01-10T01:22:27;6.20;99.90
67163;DHT22;54092;53.088;8.850;2023-01-10T01:24:53;6.20;99.90
67163;DHT22;54092;53.088;8.850;2023-01-10T01:27:18;6.20;99.90
67163;DHT22;54092;53.088;8.850;2023-01-10T01:29:45;6.20;99.90
67163;DHT22;54092;53.088;8.850;2023-01-10T01:32:10;6.20;99.90
67163;DHT22;54092;53.088;8.850;2023-01-10T01:34:36;6.20;99.90
67163;DHT22;54092;53.088;8.850;2023-01-10T01:37:02;6.20;99.90
67163;DHT22;54092;53.088;8.850;2023-01-10T01:39:27;6.30;99.90
67163;DHT22;54092;53.088;8.850;2023-01-10T01:41:52;6.20;99.90
67163;DHT22;54092;53.088;8.850;2023-01-10T01:44:22;6.30;99.90
67163;DHT22;54092;53.088;8.850;2023-01-10T01:46:54;6.30;99.90
67163;DHT22;54092;53.088;8.850;2023-01-10T01:49:23;6.20;99.90
67163;DHT22;54092;53.088;8.850;2023-01-10T01:52:01;6.40;99.90
67163;DHT22;54092;53.088;8.850;2023-01-10T01:54:28;8.30;99.90
67163;DHT22;54092;53.088;8.850;2023-01-10T01:57:04;6.40;99.90
67163;DHT22;54092;53.088;8.850;2023-01-10T01:59:35;6.40;99.90
67163;DHT22;54092;53.088;8.850;2023-01-10T02:02:07;6.40;99.90
67163;DHT22;54092;53.088;8.850;2023-01-10T02:04:52;6.40;99.90
67163;DHT22;54092;53.088;8.850;2023-01-10T02:07:20;6.30;99.90
67163;DHT22;54092;53.088;8.850;2023-01-10T02:12:40;6.30;99.90
67163;DHT22;54092;53.088;8.850;2023-01-10T02:15:08;6.30;99.90
67163;DHT22;54092;53.088;8.850;2023-01-10T02:17:34;6.30;99.90
67163;DHT22;54092;53.088;8.850;2023-01-10T02:20:04;6.30;99.90
67163;DHT22;54092;53.088;8.850;2023-01-10T02:23:12;6.30;99.90
67163;DHT22;54092;53.088;8.850;2023-01-10T02:34:16;6.30;99.90
67163;DHT22;54092;53.088;8.850;2023-01-10T02:37:02;6.30;99.90
67163;DHT22;54092;53.088;8.850;2023-01-10T02:39:54;6.30;99.90
67163;DHT22;54092;53.088;8.850;2023-01-10T02:42:38;6.30;99.90
67163;DHT22;54092;53.088;8.850;2023-01-10T02:45:32;6.20;99.90
67163;DHT22;54092;53.088;8.850;2023-01-10T02:47:58;6.20;99.90
67163;DHT22;54092;53.088;8.850;2023-01-10T02:53:22;6.20;99.90
67163;DHT22;54092;53.088;8.850;2023-01-10T02:56:06;6.20;99.90
67163;DHT22;54092;53.088;8.850;2023-01-10T02:59:08;6.20;99.90
67163;DHT22;54092;53.088;8.850;2023-01-10T03:01:56;6.20;99.90
67163;DHT22;54092;53.088;8.850;2023-01-10T03:04:40;6.10;99.90
67163;DHT22;54092;53.088;8.850;2023-01-10T03:07:33;6.10;99.90
67163;DHT22;54092;53.088;8.850;2023-01-10T03:10:29;6.10;99.90
67163;DHT22;54092;53.088;8.850;2023-01-10T03:15:24;6.10;99.90
67163;DHT22;54092;53.088;8.850;2023-01-10T03:17:55;6.10;99.90
67163;DHT22;54092;53.088;8.850;2023-01-10T03:20:23;6.10;99.90
67163;DHT22;54092;53.088;8.850;2023-01-10T03:22:50;6.10;99.90
67163;DHT22;54092;53.088;8.850;2023-01-10T03:25:18;6.10;99.90
67163;DHT22;54092;53.088;8.850;2023-01-10T03:28:13;6.20;99.90
67163;DHT22;54092;53.088;8.850;2023-01-10T03:30:53;6.10;99.90
67163;DHT22;54092;53.088;8.850;2023-01-10T03:33:28;6.00;99.90
67163;DHT22;54092;53.088;8.850;2023-01-10T03:39:17;5.90;99.90
67163;DHT22;54092;53.088;8.850;2023-01-10T03:42:07;5.90;99.90
67163;DHT22;54092;53.088;8.850;2023-01-10T03:44:53;5.90;99.90
67163;DHT22;54092;53.088;8.850;2023-01-10T03:47:43;6.00;99.90
67163;DHT22;54092;53.088;8.850;2023-01-10T03:50:21;6.00;99.90
67163;DHT22;54092;53.088;8.850;2023-01-10T03:52:48;6.00;99.90
67163;DHT22;54092;53.088;8.850;2023-01-10T03:55:17;5.90;99.90
67163;DHT22;54092;53.088;8.850;2023-01-10T03:57:43;5.90;99.90
67163;DHT22;54092;53.088;8.850;2023-01-10T04:00:11;5.90;99.90
67163;DHT22;54092;53.088;8.850;2023-01-10T04:02:37;5.90;99.90
67163;DHT22;54092;53.088;8.850;2023-01-10T04:05:03;5.80;99.90
67163;DHT22;54092;53.088;8.850;2023-01-10T04:07:28;5.80;99.90
67163;DHT22;54092;53.088;8.850;2023-01-10T04:09:54;5.80;99.90
67163;DHT22;54092;53.088;8.850;2023-01-10T04:12:19;5.80;99.90
67163;DHT22;54092;53.088;8.850;2023-01-10T04:14:45;5.80;99.90
67163;DHT22;54092;53.088;8.850;2023-01-10T04:17:12;5.70;99.90
67163;DHT22;54092;53.088;8.850;2023-01-10T04:19:38;5.70;99.90
67163;DHT22;54092;53.088;8.850;2023-01-10T04:22:04;5.70;99.90
67163;DHT22;54092;53.088;8.850;2023-01-10T04:24:32;5.70;99.90
67163;DHT22;54092;53.088;8.850;2023-01-10T04:26:58;5.80;99.90
67163;DHT22;54092;53.088;8.850;2023-01-10T04:29:23;5.90;99.90
67163;DHT22;54092;53.088;8.850;2023-01-10T04:31:49;5.90;99.90
67163;DHT22;54092;53.088;8.850;2023-01-10T04:34:15;6.00;99.90
67163;DHT22;54092;53.088;8.850;2023-01-10T04:36:41;6.00;99.90
67163;DHT22;54092;53.088;8.850;2023-01-10T04:39:07;6.10;99.90
67163;DHT22;54092;53.088;8.850;2023-01-10T04:41:33;6.10;99.90
67163;DHT22;54092;53.088;8.850;2023-01-10T04:43:59;6.10;99.90
67163;DHT22;54092;53.088;8.850;2023-01-10T04:46:24;6.10;99.90
67163;DHT22;54092;53.088;8.850;2023-01-10T04:48:50;6.10;99.90
67163;DHT22;54092;53.088;8.850;2023-01-10T04:51:16;6.00;99.90
67163;DHT22;54092;53.088;8.850;2023-01-10T04:53:41;6.00;99.90
67163;DHT22;54092;53.088;8.850;2023-01-10T04:56:08;6.00;99.90
67163;DHT22;54092;53.088;8.850;2023-01-10T04:58:35;5.90;99.90
67163;DHT22;54092;53.088;8.850;2023-01-10T05:01:10;5.90;99.90
67163;DHT22;54092;53.088;8.850;2023-01-10T05:03:36;5.70;99.90
67163;DHT22;54092;53.088;8.850;2023-01-10T05:06:01;5.70;99.90
67163;DHT22;54092;53.088;8.850;2023-01-10T05:08:27;5.70;99.90
67163;DHT22;54092;53.088;8.850;2023-01-10T05:10:53;5.60;99.90
67163;DHT22;54092;53.088;8.850;2023-01-10T05:13:18;5.70;99.90
67163;DHT22;54092;53.088;8.850;2023-01-10T05:15:44;5.60;99.90
67163;DHT22;54092;53.088;8.850;2023-01-10T05:18:09;5.50;99.90
67163;DHT22;54092;53.088;8.850;2023-01-10T05:20:35;5.50;99.90
67163;DHT22;54092;53.088;8.850;2023-01-10T05:23:00;5.50;99.90
67163;DHT22;54092;53.088;8.850;2023-01-10T05:25:26;5.40;99.90
67163;DHT22;54092;53.088;8.850;2023-01-10T05:27:51;5.40;99.90
67163;DHT22;54092;53.088;8.850;2023-01-10T05:30:17;5.40;99.90
67163;DHT22;54092;53.088;8.850;2023-01-10T05:32:42;5.40;99.90
67163;DHT22;54092;53.088;8.850;2023-01-10T05:35:09;5.50;99.90
67163;DHT22;54092;53.088;8.850;2023-01-10T05:37:34;5.50;99.90
67163;DHT22;54092;53.088;8.850;2023-01-10T05:40:00;5.50;99.90
67163;DHT22;54092;53.088;8.850;2023-01-10T05:42:26;5.50;99.90
67163;DHT22;54092;53.088;8.850;2023-01-10T05:44:51;5.50;99.90
67163;DHT22;54092;53.088;8.850;2023-01-10T05:47:17;5.50;99.90
67163;DHT22;54092;53.088;8.850;2023-01-10T05:49:42;5.50;99.90
67163;DHT22;54092;53.088;8.850;2023-01-10T05:52:07;5.50;99.90
67163;DHT22;54092;53.088;8.850;2023-01-10T05:54:33;5.50;99.90
67163;DHT22;54092;53.088;8.850;2023-01-10T05:56:58;5.50;99.90
67163;DHT22;54092;53.088;8.850;2023-01-10T05:59:24;5.50;99.90
67163;DHT22;54092;53.088;8.850;2023-01-10T06:01:49;5.40;99.90
67163;DHT22;54092;53.088;8.850;2023-01-10T06:04:15;5.40;99.90
67163;DHT22;54092;53.088;8.850;2023-01-10T06:06:40;5.50;99.90
67163;DHT22;54092;53.088;8.850;2023-01-10T06:09:06;5.50;99.90
67163;DHT22;54092;53.088;8.850;2023-01-10T06:11:32;5.50;99.90
67163;DHT22;54092;53.088;8.850;2023-01-10T06:14:01;5.60;99.90
67163;DHT22;54092;53.088;8.850;2023-01-10T06:16:26;5.60;99.90
67163;DHT22;54092;53.088;8.850;2023-01-10T06:18:52;5.70;99.90
67163;DHT22;54092;53.088;8.850;2023-01-10T06:21:17;5.70;99.90
67163;DHT22;54092;53.088;8.850;2023-01-10T06:23:43;5.80;99.90
67163;DHT22;54092;53.088;8.850;2023-01-10T06:26:08;5.80;99.90
67163;DHT22;54092;53.088;8.850;2023-01-10T06:28:34;5.90;99.90
67163;DHT22;54092;53.088;8.850;2023-01-10T06:31:00;5.80;99.90
67163;DHT22;54092;53.088;8.850;2023-01-10T06:33:25;5.90;99.90
67163;DHT22;54092;53.088;8.850;2023-01-10T06:35:51;5.90;99.90
67163;DHT22;54092;53.088;8.850;2023-01-10T06:38:17;6.00;99.90
67163;DHT22;54092;53.088;8.850;2023-01-10T06:40:43;5.90;99.90
67163;DHT22;54092;53.088;8.850;2023-01-10T06:43:08;6.00;99.90
67163;DHT22;54092;53.088;8.850;2023-01-10T06:45:34;6.00;99.90
67163;DHT22;54092;53.088;8.850;2023-01-10T06:47:59;6.10;99.90
67163;DHT22;54092;53.088;8.850;2023-01-10T06:50:25;6.20;99.90
67163;DHT22;54092;53.088;8.850;2023-01-10T06:52:55;6.30;99.90
67163;DHT22;54092;53.088;8.850;2023-01-10T06:55:20;6.30;99.90
67163;DHT22;54092;53.088;8.850;2023-01-10T06:57:47;6.30;99.90
67163;DHT22;54092;53.088;8.850;2023-01-10T07:00:13;6.20;99.90
67163;DHT22;54092;53.088;8.850;2023-01-10T07:02:38;6.10;99.90
67163;DHT22;54092;53.088;8.850;2023-01-10T07:05:04;6.10;99.90
67163;DHT22;54092;53.088;8.850;2023-01-10T07:07:30;6.10;99.90
67163;DHT22;54092;53.088;8.850;2023-01-10T07:09:55;6.10;99.90
67163;DHT22;54092;53.088;8.850;2023-01-10T07:12:20;6.10;99.90
67163;DHT22;54092;53.088;8.850;2023-01-10T07:14:46;6.10;99.90
67163;DHT22;54092;53.088;8.850;2023-01-10T07:17:12;6.10;99.90
67163;DHT22;54092;53.088;8.850;2023-01-10T07:19:37;6.10;99.90
67163;DHT22;54092;53.088;8.850;2023-01-10T07:22:02;6.10;99.90
67163;DHT22;54092;53.088;8.850;2023-01-10T07:24:28;6.10;99.90
67163;DHT22;54092;53.088;8.850;2023-01-10T07:26:54;6.10;99.90
67163;DHT22;54092;53.088;8.850;2023-01-10T07:29:20;6.10;99.90
67163;DHT22;54092;53.088;8.850;2023-01-10T07:31:46;6.00;99.90
67163;DHT22;54092;53.088;8.850;2023-01-10T07:34:12;5.90;99.90
67163;DHT22;54092;53.088;8.850;2023-01-10T07:36:37;5.90;99.90
67163;DHT22;54092;53.088;8.850;2023-01-10T07:39:03;5.90;99.90
67163;DHT22;54092;53.088;8.850;2023-01-10T07:41:28;5.90;99.90
67163;DHT22;54092;53.088;8.850;2023-01-10T07:43:54;5.80;99.90
67163;DHT22;54092;53.088;8.850;2023-01-10T07:46:19;5.80;99.90
67163;DHT22;54092;53.088;8.850;2023-01-10T07:48:45;5.80;99.90
67163;DHT22;54092;53.088;8.850;2023-01-10T07:51:11;5.80;99.90
67163;DHT22;54092;53.088;8.850;2023-01-10T07:53:37;5.80;99.90
67163;DHT22;54092;53.088;8.850;2023-01-10T07:56:03;5.80;99.90
67163;DHT22;54092;53.088;8.850;2023-01-10T07:58:29;5.80;99.90
67163;DHT22;54092;53.088;8.850;2023-01-10T08:00:58;5.80;99.90
67163;DHT22;54092;53.088;8.850;2023-01-10T08:03:24;5.80;99.90
67163;DHT22;54092;53.088;8.850;2023-01-10T08:05:57;5.80;99.90
67163;DHT22;54092;53.088;8.850;2023-01-10T08:08:23;5.90;99.90
67163;DHT22;54092;53.088;8.850;2023-01-10T08:10:48;6.00;99.90
67163;DHT22;54092;53.088;8.850;2023-01-10T08:13:14;6.10;99.90
67163;DHT22;54092;53.088;8.850;2023-01-10T08:15:39;6.10;99.90
67163;DHT22;54092;53.088;8.850;2023-01-10T08:18:05;6.10;99.90
67163;DHT22;54092;53.088;8.850;2023-01-10T08:20:30;6.10;99.90
67163;DHT22;54092;53.088;8.850;2023-01-10T08:22:57;6.20;99.90
67163;DHT22;54092;53.088;8.850;2023-01-10T08:25:23;6.20;99.90
67163;DHT22;54092;53.088;8.850;2023-01-10T08:27:48;6.20;99.90
67163;DHT22;54092;53.088;8.850;2023-01-10T08:30:14;6.20;99.90
67163;DHT22;54092;53.088;8.850;2023-01-10T08:32:40;6.20;99.90
67163;DHT22;54092;53.088;8.850;2023-01-10T08:35:05;6.20;99.90
67163;DHT22;54092;53.088;8.850;2023-01-10T08:37:31;6.10;99.90
67163;DHT22;54092;53.088;8.850;2023-01-10T08:39:56;6.10;99.90
67163;DHT22;54092;53.088;8.850;2023-01-10T08:42:22;6.30;99.90
67163;DHT22;54092;53.088;8.850;2023-01-10T08:44:47;6.40;99.90
67163;DHT22;54092;53.088;8.850;2023-01-10T08:47:13;6.60;99.90
67163;DHT22;54092;53.088;8.850;2023-01-10T08:49:39;6.80;99.90
67163;DHT22;54092;53.088;8.850;2023-01-10T08:52:04;6.90;99.90
67163;DHT22;54092;53.088;8.850;2023-01-10T08:54:30;7.00;99.90
67163;DHT22;54092;53.088;8.850;2023-01-10T08:56:57;7.00;99.90
67163;DHT22;54092;53.088;8.850;2023-01-10T08:59:23;6.90;99.90
67163;DHT22;54092;53.088;8.850;2023-01-10T09:01:48;6.70;99.90
67163;DHT22;54092;53.088;8.850;2023-01-10T09:04:14;6.60;99.90
67163;DHT22;54092;53.088;8.850;2023-01-10T09:06:39;6.60;99.90
67163;DHT22;54092;53.088;8.850;2023-01-10T09:09:05;6.60;99.90
67163;DHT22;54092;53.088;8.850;2023-01-10T09:11:30;6.60;99.90
67163;DHT22;54092;53.088;8.850;2023-01-10T09:13:56;6.60;99.90
67163;DHT22;54092;53.088;8.850;2023-01-10T09:16:21;6.60;99.90
67163;DHT22;54092;53.088;8.850;2023-01-10T09:18:48;6.60;99.90
67163;DHT22;54092;53.088;8.850;2023-01-10T09:21:13;6.60;99.90
67163;DHT22;54092;53.088;8.850;2023-01-10T09:23:39;6.60;99.90
67163;DHT22;54092;53.088;8.850;2023-01-10T09:26:05;6.60;99.90
67163;DHT22;54092;53.088;8.850;2023-01-10T09:28:31;6.60;99.90
67163;DHT22;54092;53.088;8.850;2023-01-10T09:30:56;6.70;99.90
67163;DHT22;54092;53.088;8.850;2023-01-10T09:33:22;6.70;99.90
67163;DHT22;54092;53.088;8.850;2023-01-10T09:35:48;6.80;99.90
67163;DHT22;54092;53.088;8.850;2023-01-10T09:38:17;6.80;99.90
67163;DHT22;54092;53.088;8.850;2023-01-10T09:43:52;6.80;99.90
67163;DHT22;54092;53.088;8.850;2023-01-10T09:49:09;6.80;99.90
67163;DHT22;54092;53.088;8.850;2023-01-10T09:51:45;6.90;99.90
67163;DHT22;54092;53.088;8.850;2023-01-10T09:54:24;7.00;99.90
67163;DHT22;54092;53.088;8.850;2023-01-10T09:56:51;7.10;99.90
67163;DHT22;54092;53.088;8.850;2023-01-10T09:59:21;7.20;99.90
67163;DHT22;54092;53.088;8.850;2023-01-10T10:01:51;7.60;99.90
67163;DHT22;54092;53.088;8.850;2023-01-10T10:04:27;8.10;99.90
67163;DHT22;54092;53.088;8.850;2023-01-10T10:06:54;8.10;99.90
67163;DHT22;54092;53.088;8.850;2023-01-10T10:09:39;7.80;99.90
67163;DHT22;54092;53.088;8.850;2023-01-10T10:15:10;7.40;99.90
67163;DHT22;54092;53.088;8.850;2023-01-10T10:18:27;7.30;99.90
67163;DHT22;54092;53.088;8.850;2023-01-10T10:20:48;7.30;99.90
67163;DHT22;54092;53.088;8.850;2023-01-10T10:23:34;7.30;99.90
67163;DHT22;54092;53.088;8.850;2023-01-10T10:26:26;7.30;99.90
67163;DHT22;54092;53.088;8.850;2023-01-10T10:31:56;7.30;99.90
67163;DHT22;54092;53.088;8.850;2023-01-10T10:37:31;7.30;99.90
67163;DHT22;54092;53.088;8.850;2023-01-10T10:40:04;7.30;99.90
67163;DHT22;54092;53.088;8.850;2023-01-10T10:42:40;7.30;99.90
67163;DHT22;54092;53.088;8.850;2023-01-10T10:47:58;7.30;99.90
67163;DHT22;54092;53.088;8.850;2023-01-10T10:50:31;7.30;99.90
67163;DHT22;54092;53.088;8.850;2023-01-10T10:53:00;7.30;99.90
67163;DHT22;54092;53.088;8.850;2023-01-10T10:55:33;7.40;99.90
67163;DHT22;54092;53.088;8.850;2023-01-10T10:58:01;7.40;99.90
67163;DHT22;54092;53.088;8.850;2023-01-10T11:00:29;7.40;99.90
67163;DHT22;54092;53.088;8.850;2023-01-10T11:03:31;7.40;99.90
67163;DHT22;54092;53.088;8.850;2023-01-10T11:05:59;7.40;99.90
67163;DHT22;54092;53.088;8.850;2023-01-10T11:08:27;7.50;99.90
67163;DHT22;54092;53.088;8.850;2023-01-10T11:10:58;7.50;99.90
67163;DHT22;54092;53.088;8.850;2023-01-10T11:15:58;7.60;99.90
67163;DHT22;54092;53.088;8.850;2023-01-10T11:18:28;7.70;99.90
67163;DHT22;54092;53.088;8.850;2023-01-10T11:21:05;7.70;99.90
67163;DHT22;54092;53.088;8.850;2023-01-10T11:23:52;7.70;99.90
67163;DHT22;54092;53.088;8.850;2023-01-10T11:26:27;7.80;99.90
67163;DHT22;54092;53.088;8.850;2023-01-10T11:29:12;7.90;99.90
67163;DHT22;54092;53.088;8.850;2023-01-10T11:31:40;8.00;99.90
67163;DHT22;54092;53.088;8.850;2023-01-10T11:34:23;8.10;99.90
67163;DHT22;54092;53.088;8.850;2023-01-10T11:39:43;8.50;99.90
67163;DHT22;54092;53.088;8.850;2023-01-10T11:42:26;9.10;99.90
67163;DHT22;54092;53.088;8.850;2023-01-10T11:45:13;9.70;99.90
67163;DHT22;54092;53.088;8.850;2023-01-10T11:47:42;9.50;99.90
67163;DHT22;54092;53.088;8.850;2023-01-10T11:50:09;9.10;99.90
67163;DHT22;54092;53.088;8.850;2023-01-10T11:52:42;8.80;99.90
67163;DHT22;54092;53.088;8.850;2023-01-10T11:55:09;8.70;99.90
67163;DHT22;54092;53.088;8.850;2023-01-10T11:57:35;8.60;99.90
67163;DHT22;54092;53.088;8.850;2023-01-10T12:03:25;8.60;99.90
67163;DHT22;54092;53.088;8.850;2023-01-10T12:06:01;9.40;99.90
67163;DHT22;54092;53.088;8.850;2023-01-10T12:08:37;9.80;99.90
67163;DHT22;54092;53.088;8.850;2023-01-10T12:13:49;9.40;99.90
67163;DHT22;54092;53.088;8.850;2023-01-10T12:16:19;9.10;99.90
67163;DHT22;54092;53.088;8.850;2023-01-10T12:18:47;9.00;99.90
67163;DHT22;54092;53.088;8.850;2023-01-10T12:21:15;8.90;99.90
67163;DHT22;54092;53.088;8.850;2023-01-10T12:23:42;8.80;99.90
67163;DHT22;54092;53.088;8.850;2023-01-10T12:26:11;8.90;99.90
67163;DHT22;54092;53.088;8.850;2023-01-10T12:28:42;8.90;99.90
67163;DHT22;54092;53.088;8.850;2023-01-10T12:31:12;8.90;99.90
67163;DHT22;54092;53.088;8.850;2023-01-10T12:33:49;8.80;99.90
67163;DHT22;54092;53.088;8.850;2023-01-10T12:36:43;8.70;99.90
67163;DHT22;54092;53.088;8.850;2023-01-10T12:39:36;8.60;99.90
67163;DHT22;54092;53.088;8.850;2023-01-10T12:44:59;8.30;99.90
67163;DHT22;54092;53.088;8.850;2023-01-10T12:47:51;8.20;99.90
67163;DHT22;54092;53.088;8.850;2023-01-10T12:50:22;8.30;99.90
67163;DHT22;54092;53.088;8.850;2023-01-10T12:53:04;8.30;99.90
67163;DHT22;54092;53.088;8.850;2023-01-10T12:55:35;8.30;99.90
67163;DHT22;54092;53.088;8.850;2023-01-10T12:58:03;8.30;99.90
67163;DHT22;54092;53.088;8.850;2023-01-10T13:00:33;8.30;99.90
67163;DHT22;54092;53.088;8.850;2023-01-10T13:02:59;8.20;99.90
67163;DHT22;54092;53.088;8.850;2023-01-10T13:05:28;8.10;99.90
67163;DHT22;54092;53.088;8.850;2023-01-10T13:08:12;8.10;99.90
67163;DHT22;54092;53.088;8.850;2023-01-10T13:10:43;8.00;99.90
67163;DHT22;54092;53.088;8.850;2023-01-10T13:13:17;8.00;99.90
67163;DHT22;54092;53.088;8.850;2023-01-10T13:21:38;7.90;99.90
67163;DHT22;54092;53.088;8.850;2023-01-10T13:24:23;7.90;99.90
67163;DHT22;54092;53.088;8.850;2023-01-10T13:26:52;7.80;99.90
67163;DHT22;54092;53.088;8.850;2023-01-10T13:29:39;7.80;99.90
67163;DHT22;54092;53.088;8.850;2023-01-10T13:32:26;7.90;99.90
67163;DHT22;54092;53.088;8.850;2023-01-10T13:34:53;7.80;99.90
67163;DHT22;54092;53.088;8.850;2023-01-10T13:37:28;7.70;99.90
67163;DHT22;54092;53.088;8.850;2023-01-10T13:39:57;8.30;99.90
67163;DHT22;54092;53.088;8.850;2023-01-10T13:42:32;7.80;99.90
67163;DHT22;54092;53.088;8.850;2023-01-10T13:45:19;7.70;99.90
67163;DHT22;54092;53.088;8.850;2023-01-10T13:52:51;7.70;99.90
67163;DHT22;54092;53.088;8.850;2023-01-10T13:55:29;7.70;99.90
67163;DHT22;54092;53.088;8.850;2023-01-10T14:01:37;6.70;99.90
67163;DHT22;54092;53.088;8.850;2023-01-10T14:04:26;6.90;99.90
67163;DHT22;54092;53.088;8.850;2023-01-10T14:07:22;7.00;99.90
67163;DHT22;54092;53.088;8.850;2023-01-10T14:09:47;5.20;99.90
67163;DHT22;54092;53.088;8.850;2023-01-10T14:12:27;7.80;99.90
67163;DHT22;54092;53.088;8.850;2023-01-10T14:15:04;7.60;99.90
67163;DHT22;54092;53.088;8.850;2023-01-10T14:17:32;6.70;99.90
67163;DHT22;54092;53.088;8.850;2023-01-10T14:20:03;9.80;99.90
67163;DHT22;54092;53.088;8.850;2023-01-10T14:22:32;9.60;99.90
67163;DHT22;54092;53.088;8.850;2023-01-10T14:25:01;7.60;99.90
67163;DHT22;54092;53.088;8.850;2023-01-10T14:27:42;7.70;99.90
67163;DHT22;54092;53.088;8.850;2023-01-10T14:32:41;7.50;99.90
67163;DHT22;54092;53.088;8.850;2023-01-10T14:35:14;7.50;99.90
67163;DHT22;54092;53.088;8.850;2023-01-10T14:43:04;7.40;99.90
67163;DHT22;54092;53.088;8.850;2023-01-10T14:45:50;7.30;99.90
67163;DHT22;54092;53.088;8.850;2023-01-10T14:48:30;7.30;99.90
67163;DHT22;54092;53.088;8.850;2023-01-10T14:53:41;7.20;99.90
67163;DHT22;54092;53.088;8.850;2023-01-10T14:56:21;7.20;99.90
67163;DHT22;54092;53.088;8.850;2023-01-10T14:58:47;7.20;99.90
67163;DHT22;54092;53.088;8.850;2023-01-10T15:01:27;7.20;99.90
67163;DHT22;54092;53.088;8.850;2023-01-10T15:03:54;7.10;99.90
67163;DHT22;54092;53.088;8.850;2023-01-10T15:06:21;7.10;99.90
67163;DHT22;54092;53.088;8.850;2023-01-10T15:08:55;7.00;99.90
67163;DHT22;54092;53.088;8.850;2023-01-10T15:11:21;7.10;99.90
67163;DHT22;54092;53.088;8.850;2023-01-10T15:13:49;7.10;99.90
67163;DHT22;54092;53.088;8.850;2023-01-10T15:16:19;7.00;99.90
67163;DHT22;54092;53.088;8.850;2023-01-10T15:18:46;7.00;99.90
67163;DHT22;54092;53.088;8.850;2023-01-10T15:21:13;6.90;99.90
67163;DHT22;54092;53.088;8.850;2023-01-10T15:23:41;6.90;99.90
67163;DHT22;54092;53.088;8.850;2023-01-10T15:26:10;6.90;99.90
67163;DHT22;54092;53.088;8.850;2023-01-10T15:28:39;6.90;99.90
67163;DHT22;54092;53.088;8.850;2023-01-10T15:31:06;6.90;99.90
67163;DHT22;54092;53.088;8.850;2023-01-10T15:33:34;6.90;99.90
67163;DHT22;54092;53.088;8.850;2023-01-10T15:36:15;6.80;99.90
67163;DHT22;54092;53.088;8.850;2023-01-10T15:38:44;6.90;99.90
67163;DHT22;54092;53.088;8.850;2023-01-10T15:41:16;6.90;99.90
67163;DHT22;54092;53.088;8.850;2023-01-10T15:43:43;6.80;99.90
67163;DHT22;54092;53.088;8.850;2023-01-10T15:46:20;6.80;99.90
67163;DHT22;54092;53.088;8.850;2023-01-10T15:48:57;6.80;99.90
67163;DHT22;54092;53.088;8.850;2023-01-10T15:51:32;6.80;99.90
67163;DHT22;54092;53.088;8.850;2023-01-10T15:54:03;6.80;99.90
67163;DHT22;54092;53.088;8.850;2023-01-10T15:56:48;6.90;99.90
67163;DHT22;54092;53.088;8.850;2023-01-10T16:04:34;6.80;99.90
67163;DHT22;54092;53.088;8.850;2023-01-10T16:07:07;6.80;99.90
67163;DHT22;54092;53.088;8.850;2023-01-10T16:09:33;6.90;99.90
67163;DHT22;54092;53.088;8.850;2023-01-10T16:12:00;6.90;99.90
67163;DHT22;54092;53.088;8.850;2023-01-10T16:15:14;6.90;99.90
67163;DHT22;54092;53.088;8.850;2023-01-10T16:17:41;6.80;99.90
67163;DHT22;54092;53.088;8.850;2023-01-10T16:20:11;6.90;99.90
67163;DHT22;54092;53.088;8.850;2023-01-10T16:22:37;6.80;99.90
67163;DHT22;54092;53.088;8.850;2023-01-10T16:25:03;6.90;99.90
67163;DHT22;54092;53.088;8.850;2023-01-10T16:27:29;6.80;99.90
67163;DHT22;54092;53.088;8.850;2023-01-10T16:29:55;6.90;99.90
67163;DHT22;54092;53.088;8.850;2023-01-10T16:32:20;6.90;99.90
67163;DHT22;54092;53.088;8.850;2023-01-10T16:34:46;6.90;99.90
67163;DHT22;54092;53.088;8.850;2023-01-10T16:37:13;6.90;99.90
67163;DHT22;54092;53.088;8.850;2023-01-10T16:39:38;6.90;99.90
67163;DHT22;54092;53.088;8.850;2023-01-10T16:42:04;6.90;99.90
67163;DHT22;54092;53.088;8.850;2023-01-10T16:44:48;6.90;99.90
67163;DHT22;54092;53.088;8.850;2023-01-10T16:47:13;6.90;99.90
67163;DHT22;54092;53.088;8.850;2023-01-10T16:49:39;6.90;99.90
67163;DHT22;54092;53.088;8.850;2023-01-10T16:52:06;7.00;99.90
67163;DHT22;54092;53.088;8.850;2023-01-10T16:54:31;6.90;99.90
67163;DHT22;54092;53.088;8.850;2023-01-10T16:57:00;7.00;99.90
67163;DHT22;54092;53.088;8.850;2023-01-10T16:59:26;7.00;99.90
67163;DHT22;54092;53.088;8.850;2023-01-10T17:01:54;7.00;99.90
67163;DHT22;54092;53.088;8.850;2023-01-10T17:04:24;7.00;99.90
67163;DHT22;54092;53.088;8.850;2023-01-10T17:06:51;7.00;99.90
67163;DHT22;54092;53.088;8.850;2023-01-10T17:09:25;6.90;99.90
67163;DHT22;54092;53.088;8.850;2023-01-10T17:11:54;7.00;99.90
67163;DHT22;54092;53.088;8.850;2023-01-10T17:14:22;7.00;99.90
67163;DHT22;54092;53.088;8.850;2023-01-10T17:16:47;7.00;99.90
67163;DHT22;54092;53.088;8.850;2023-01-10T17:19:13;7.00;99.90
67163;DHT22;54092;53.088;8.850;2023-01-10T17:21:38;7.00;99.90
67163;DHT22;54092;53.088;8.850;2023-01-10T17:24:04;7.00;99.90
67163;DHT22;54092;53.088;8.850;2023-01-10T17:26:30;7.00;99.90
67163;DHT22;54092;53.088;8.850;2023-01-10T17:28:55;7.00;99.90
67163;DHT22;54092;53.088;8.850;2023-01-10T17:31:21;7.00;99.90
67163;DHT22;54092;53.088;8.850;2023-01-10T17:33:46;7.00;99.90
67163;DHT22;54092;53.088;8.850;2023-01-10T17:36:13;6.90;99.90
67163;DHT22;54092;53.088;8.850;2023-01-10T17:38:39;7.00;99.90
67163;DHT22;54092;53.088;8.850;2023-01-10T17:41:08;7.00;99.90
67163;DHT22;54092;53.088;8.850;2023-01-10T17:43:34;7.00;99.90
67163;DHT22;54092;53.088;8.850;2023-01-10T17:46:01;7.00;99.90
67163;DHT22;54092;53.088;8.850;2023-01-10T17:48:30;7.00;99.90
67163;DHT22;54092;53.088;8.850;2023-01-10T17:51:01;7.00;99.90
67163;DHT22;54092;53.088;8.850;2023-01-10T17:53:27;7.00;99.90
67163;DHT22;54092;53.088;8.850;2023-01-10T17:55:53;7.00;99.90
67163;DHT22;54092;53.088;8.850;2023-01-10T17:58:19;7.10;99.90
67163;DHT22;54092;53.088;8.850;2023-01-10T18:00:45;6.50;99.90
67163;DHT22;54092;53.088;8.850;2023-01-10T18:03:11;7.10;99.90
67163;DHT22;54092;53.088;8.850;2023-01-10T18:05:36;7.10;99.90
67163;DHT22;54092;53.088;8.850;2023-01-10T18:08:04;7.70;99.90
67163;DHT22;54092;53.088;8.850;2023-01-10T18:10:31;7.10;99.90
67163;DHT22;54092;53.088;8.850;2023-01-10T18:15:24;7.00;99.90
67163;DHT22;54092;53.088;8.850;2023-01-10T18:17:50;4.30;99.90
67163;DHT22;54092;53.088;8.850;2023-01-10T18:22:42;6.60;99.90
67163;DHT22;54092;53.088;8.850;2023-01-10T18:25:26;6.60;99.90
67163;DHT22;54092;53.088;8.850;2023-01-10T18:27:53;4.20;99.90
67163;DHT22;54092;53.088;8.850;2023-01-10T18:30:20;6.60;99.90
67163;DHT22;54092;53.088;8.850;2023-01-10T18:32:50;6.90;99.90
67163;DHT22;54092;53.088;8.850;2023-01-10T18:37:42;6.40;99.90
67163;DHT22;54092;53.088;8.850;2023-01-10T18:40:08;6.00;99.90
67163;DHT22;54092;53.088;8.850;2023-01-10T18:45:00;6.30;99.90